Star Clipper — 9HA2513 — position and weather

sailwx.info

Track history (hours):
 
Tides and Currents Weather Stations Pressure Air Temp Water Temp Dewpoint Dewpoint Depression Visibility Wind Speed Wind Dir Waves Ship Positions

Star Clipper

Last reported at 2018-Mar-31 14:52 UTC. Time now 2018-Apr-27 08:47 UTC.
Position N 01°15' E 103°27'.
Warning: this ship's position is 26 days out of date.

Length 111 m; draft 5.7 m.

MMSI: 248786000.

Date/timePositionNaut miles runAvg speedWind from/ knotsBaromVisibWave heightAir tempDewpointWater temp
2018-Mar-31 14:52N 01°15' E 103°27'4 8.1
2018-Mar-31 14:22N 01°14' E 103°31'12 7.9
2018-Mar-31 12:52N 01°10' E 103°42'11 7.1
2018-Mar-31 11:22N 01°14' E 103°52'2 4.5
2018-Mar-31 10:58N 01°16' E 103°52'0 0.0
2018-Mar-31 10:28N 01°16' E 103°52'0 0.0
2018-Mar-31 09:58N 01°16' E 103°52'0 0.0
2018-Mar-31 08:22N 01°16' E 103°52'0 0.0
2018-Mar-31 07:04N 01°16' E 103°52'7 0.7
2018-Mar-30 21:22N 01°10' E 103°48'  
Track history (hours):
 
Tides and Currents Weather Stations Pressure Air Temp Water Temp Dewpoint Dewpoint Depression Visibility Wind Speed Wind Dir Waves Ship Positions

Star Clipper

Last reported at 2018-Mar-31 14:52 UTC. Time now 2018-Apr-27 08:47 UTC.
Position N 01°15' E 103°27'.
Warning: this ship's position is 26 days out of date.

Length 111 m; draft 5.7 m.

MMSI: 248786000.

Date/timePositionNaut miles runAvg speedWind from/ knotsBaromVisibWave heightAir tempDewpointWater temp
2018-Mar-31 14:52N 01°15' E 103°27'4 8.1
2018-Mar-31 14:22N 01°14' E 103°31'12 7.9
2018-Mar-31 12:52N 01°10' E 103°42'11 7.1
2018-Mar-31 11:22N 01°14' E 103°52'2 4.5
2018-Mar-31 10:58N 01°16' E 103°52'0 0.0
2018-Mar-31 10:28N 01°16' E 103°52'0 0.0
2018-Mar-31 09:58N 01°16' E 103°52'0 0.0
2018-Mar-31 08:22N 01°16' E 103°52'0 0.0
2018-Mar-31 07:04N 01°16' E 103°52'7 0.7
2018-Mar-30 21:22N 01°10' E 103°48'  

Dump ship's entire track history